createdAt,value
2018-08-16T00:00:49.430Z,11.63
2018-08-16T00:03:25.579Z,13.43
2018-08-16T00:06:00.715Z,10.70
2018-08-16T00:08:35.899Z,10.53
2018-08-16T00:11:11.497Z,12.30
2018-08-16T00:13:46.834Z,11.77
2018-08-16T00:16:22.499Z,9.63
2018-08-16T00:18:57.850Z,12.17
2018-08-16T00:21:34.186Z,13.90
2018-08-16T00:24:09.838Z,16.53
2018-08-16T00:26:45.735Z,13.83
2018-08-16T00:29:21.677Z,11.47
2018-08-16T00:31:57.259Z,13.50
2018-08-16T00:34:33.966Z,12.43
2018-08-16T00:37:10.059Z,13.90
2018-08-16T00:39:45.221Z,14.97
2018-08-16T00:42:21.817Z,12.50
2018-08-16T00:44:58.423Z,11.47
2018-08-16T00:47:35.070Z,10.83
2018-08-16T00:50:13.666Z,11.97
2018-08-16T00:52:49.831Z,10.70
2018-08-16T00:55:26.141Z,11.57
2018-08-16T00:58:02.872Z,12.73
2018-08-16T01:00:37.683Z,11.70
2018-08-16T01:03:13.735Z,11.20
2018-08-16T01:05:49.183Z,10.40
2018-08-16T01:08:24.222Z,12.47
2018-08-16T01:11:00.452Z,14.13
2018-08-16T01:13:35.827Z,10.37
2018-08-16T01:16:11.543Z,11.77
2018-08-16T01:18:48.061Z,13.77
2018-08-16T01:21:24.554Z,11.07
2018-08-16T01:24:00.220Z,13.00
2018-08-16T01:26:35.266Z,12.47
2018-08-16T01:29:11.199Z,12.17
2018-08-16T01:31:46.374Z,10.50
2018-08-16T01:34:23.427Z,10.93
2018-08-16T01:37:00.646Z,10.93
2018-08-16T01:39:36.351Z,10.50
2018-08-16T01:42:11.184Z,11.90
2018-08-16T01:44:47.546Z,12.03
2018-08-16T01:47:22.802Z,11.83
2018-08-16T01:49:58.646Z,12.63
2018-08-16T01:52:35.139Z,13.50
2018-08-16T01:55:11.871Z,14.07
2018-08-16T01:57:48.376Z,14.67
2018-08-16T02:00:23.082Z,15.63
2018-08-16T02:02:59.439Z,14.47
2018-08-16T02:05:35.450Z,11.80
2018-08-16T02:08:12.547Z,12.30
2018-08-16T02:10:48.723Z,13.80
2018-08-16T02:13:24.014Z,12.20
2018-08-16T02:15:58.727Z,13.73
2018-08-16T02:18:33.426Z,13.00
2018-08-16T02:21:09.535Z,13.27
2018-08-16T02:23:46.219Z,13.30
2018-08-16T02:26:22.466Z,12.87
2018-08-16T02:28:58.646Z,14.47
2018-08-16T02:31:34.978Z,13.33
2018-08-16T02:34:11.950Z,13.07
2018-08-16T02:36:48.295Z,11.83
2018-08-16T02:39:23.086Z,12.67
2018-08-16T02:41:59.706Z,12.33
2018-08-16T02:44:35.086Z,11.13
2018-08-16T02:47:10.910Z,15.13
2018-08-16T02:49:47.027Z,12.73
2018-08-16T02:52:22.169Z,14.50
2018-08-16T02:54:57.065Z,14.07
2018-08-16T02:57:33.182Z,13.93
2018-08-16T03:00:11.627Z,13.77
2018-08-16T03:02:48.493Z,13.17
2018-08-16T03:05:24.311Z,17.70
2018-08-16T03:08:00.907Z,11.93
2018-08-16T03:10:35.878Z,14.80
2018-08-16T03:13:11.346Z,14.87
2018-08-16T03:15:46.750Z,17.80
2018-08-16T03:18:21.398Z,16.57
2018-08-16T03:20:57.496Z,15.03
2018-08-16T03:23:32.423Z,16.67
2018-08-16T03:26:07.697Z,16.53
2018-08-16T03:28:44.010Z,16.53
2018-08-16T03:31:20.159Z,12.47
2018-08-16T03:33:56.758Z,12.87
2018-08-16T03:36:31.663Z,14.73
2018-08-16T03:39:09.918Z,14.80
2018-08-16T03:41:45.367Z,16.77
2018-08-16T03:44:22.733Z,15.67
2018-08-16T03:46:59.467Z,15.20
2018-08-16T03:49:35.865Z,15.00
2018-08-16T03:52:11.818Z,13.00
2018-08-16T03:54:47.441Z,14.90
2018-08-16T03:57:22.630Z,13.57
2018-08-16T03:59:59.102Z,15.53
2018-08-16T04:02:34.422Z,16.47
2018-08-16T04:05:11.235Z,14.97
2018-08-16T04:07:46.419Z,14.93
2018-08-16T04:10:21.650Z,14.17
2018-08-16T04:12:57.226Z,14.40
2018-08-16T04:15:32.306Z,16.17
2018-08-16T04:18:08.337Z,13.97
2018-08-16T04:20:43.618Z,15.97
2018-08-16T04:23:20.618Z,14.13
2018-08-16T04:25:55.657Z,16.43
2018-08-16T04:28:31.866Z,14.00
2018-08-16T04:31:06.802Z,19.27
2018-08-16T04:33:41.727Z,16.07
2018-08-16T04:36:18.877Z,16.20
2018-08-16T04:38:56.260Z,15.50
2018-08-16T04:41:32.511Z,14.83
2018-08-16T04:44:08.627Z,13.23
2018-08-16T04:46:44.607Z,14.87
2018-08-16T04:49:21.382Z,12.93
2018-08-16T04:51:57.257Z,14.13
2018-08-16T04:54:33.396Z,15.50
2018-08-16T04:57:08.651Z,13.73
2018-08-16T04:59:44.946Z,14.47
2018-08-16T05:02:19.750Z,13.87
2018-08-16T05:04:55.575Z,14.20
2018-08-16T05:07:30.973Z,12.40
2018-08-16T05:10:06.646Z,14.47
2018-08-16T05:12:41.237Z,13.47
2018-08-16T05:15:16.474Z,15.33
2018-08-16T05:17:52.343Z,13.90
2018-08-16T05:20:28.366Z,17.70
2018-08-16T05:23:04.498Z,16.67
2018-08-16T05:25:39.020Z,13.47
2018-08-16T05:28:15.040Z,14.00
2018-08-16T05:30:51.365Z,15.67
2018-08-16T05:33:27.027Z,16.93
2018-08-16T05:36:02.115Z,15.73
2018-08-16T05:38:36.613Z,13.07
2018-08-16T05:41:13.225Z,17.23
2018-08-16T05:43:50.059Z,14.13
2018-08-16T05:46:27.930Z,14.30
2018-08-16T05:49:05.110Z,16.50
2018-08-16T05:51:40.301Z,15.53
2018-08-16T05:54:16.265Z,13.67
2018-08-16T05:56:53.530Z,17.00
2018-08-16T05:59:29.777Z,14.70
2018-08-16T06:02:04.792Z,17.93
2018-08-16T06:04:40.770Z,15.03
2018-08-16T06:07:17.891Z,12.03
2018-08-16T06:09:53.582Z,15.60
2018-08-16T06:12:29.594Z,15.40
2018-08-16T06:15:06.639Z,14.07
2018-08-16T06:17:43.435Z,13.40
2018-08-16T06:20:19.559Z,14.60
2018-08-16T06:22:56.396Z,11.77
2018-08-16T06:25:31.633Z,15.23
2018-08-16T06:28:07.888Z,12.80
2018-08-16T06:30:43.858Z,14.47
2018-08-16T06:33:19.734Z,16.07
2018-08-16T06:35:54.107Z,21.07
2018-08-16T06:38:29.411Z,12.57
2018-08-16T06:41:04.567Z,13.77
2018-08-16T06:43:40.024Z,16.70
2018-08-16T06:46:17.195Z,13.43
2018-08-16T06:48:52.646Z,12.30
2018-08-16T06:51:27.694Z,15.60
2018-08-16T06:54:03.731Z,16.33
2018-08-16T06:56:38.699Z,15.37
2018-08-16T06:59:14.323Z,17.73
2018-08-16T07:01:49.217Z,18.50
2018-08-16T07:04:24.597Z,14.77
2018-08-16T07:07:02.314Z,15.73
2018-08-16T07:09:39.786Z,18.57
2018-08-16T07:12:15.648Z,14.50
2018-08-16T07:14:54.177Z,16.80
2018-08-16T07:17:30.983Z,15.77
2018-08-16T07:20:06.666Z,22.77
2018-08-16T07:22:41.047Z,19.60
2018-08-16T07:25:16.230Z,16.50
2018-08-16T07:27:51.615Z,15.83
2018-08-16T07:30:26.592Z,17.50
2018-08-16T07:33:02.668Z,15.43
2018-08-16T07:35:38.067Z,17.70
2018-08-16T07:38:15.306Z,13.23
2018-08-16T07:40:51.682Z,14.73
2018-08-16T07:43:28.257Z,15.13
2018-08-16T07:46:04.764Z,22.57
2018-08-16T07:48:40.682Z,19.53
2018-08-16T07:51:16.776Z,19.13
2018-08-16T07:53:53.611Z,17.93
2018-08-16T07:56:29.399Z,15.57
2018-08-16T07:59:06.254Z,16.23
2018-08-16T08:01:42.238Z,14.10
2018-08-16T08:04:17.838Z,14.57
2018-08-16T08:06:53.459Z,19.20
2018-08-16T08:09:28.470Z,21.93
2018-08-16T08:12:02.870Z,19.93
2018-08-16T08:14:37.941Z,17.53
2018-08-16T08:17:14.302Z,16.77
2018-08-16T08:19:49.827Z,21.90
2018-08-16T08:22:25.779Z,20.33
2018-08-16T08:25:01.534Z,19.73
2018-08-16T08:27:37.515Z,21.53
2018-08-16T08:30:14.366Z,21.53
2018-08-16T08:32:49.930Z,17.87
2018-08-16T08:35:25.701Z,18.23
2018-08-16T08:38:10.911Z,20.80
2018-08-16T08:40:46.758Z,17.83
2018-08-16T08:43:33.040Z,16.23
2018-08-16T08:46:09.434Z,21.93
2018-08-16T08:48:44.399Z,20.67
2018-08-16T08:51:19.787Z,15.63
2018-08-16T08:55:03.475Z,17.13
2018-08-16T08:57:49.934Z,17.40
2018-08-16T09:00:25.182Z,18.20
2018-08-16T09:03:02.213Z,16.07
2018-08-16T09:05:39.446Z,14.70
2018-08-16T09:08:14.537Z,19.47
2018-08-16T09:11:02.033Z,16.23
2018-08-16T09:13:49.266Z,14.53
2018-08-16T09:16:27.795Z,17.90
2018-08-16T09:19:02.952Z,17.60
2018-08-16T09:21:38.942Z,16.87
2018-08-16T09:24:14.175Z,17.07
2018-08-16T09:26:49.699Z,17.10
2018-08-16T09:30:41.494Z,16.43
2018-08-16T09:33:28.489Z,20.37
2018-08-16T09:36:03.079Z,21.43
2018-08-16T09:38:39.859Z,18.30
2018-08-16T09:41:15.646Z,16.93
2018-08-16T09:43:51.463Z,14.60
2018-08-16T09:47:06.163Z,19.10
2018-08-16T09:49:53.146Z,14.30
2018-08-16T09:52:28.602Z,19.33
2018-08-16T09:55:03.783Z,17.03
2018-08-16T09:57:40.402Z,20.97
2018-08-16T10:00:15.743Z,17.77
2018-08-16T10:02:52.554Z,17.80
2018-08-16T10:05:28.123Z,18.10
2018-08-16T10:08:04.890Z,17.97
2018-08-16T10:10:40.870Z,16.67
2018-08-16T10:13:16.669Z,15.13
2018-08-16T10:15:51.733Z,17.20
2018-08-16T10:18:28.870Z,16.83
2018-08-16T10:21:05.786Z,15.60
2018-08-16T10:23:40.968Z,21.80
2018-08-16T10:26:18.350Z,18.47
2018-08-16T10:28:55.558Z,16.53
2018-08-16T10:31:32.234Z,17.63
2018-08-16T10:34:08.360Z,18.20
2018-08-16T10:36:44.290Z,16.43
2018-08-16T10:39:21.797Z,16.77
2018-08-16T10:41:58.463Z,19.63
2018-08-16T10:44:35.052Z,16.73
2018-08-16T10:47:10.387Z,15.33
2018-08-16T10:49:46.204Z,16.57
2018-08-16T10:52:23.267Z,14.97
2018-08-16T10:54:58.422Z,18.17
2018-08-16T10:57:33.691Z,17.20
2018-08-16T11:00:10.053Z,21.00
2018-08-16T11:02:45.202Z,17.13
2018-08-16T11:05:21.298Z,22.47
2018-08-16T11:07:57.942Z,16.07
2018-08-16T11:10:34.496Z,15.03
2018-08-16T11:13:11.273Z,14.80
2018-08-16T11:15:47.379Z,16.27
2018-08-16T11:18:23.003Z,18.20
2018-08-16T11:20:59.375Z,19.17
2018-08-16T11:23:34.777Z,20.97
2018-08-16T11:26:10.303Z,19.17
2018-08-16T11:28:47.245Z,16.60
2018-08-16T11:31:23.366Z,18.07
2018-08-16T11:33:58.639Z,16.53
2018-08-16T11:36:34.453Z,17.87
2018-08-16T11:39:09.938Z,20.03
2018-08-16T11:41:46.290Z,20.77
2018-08-16T11:44:20.818Z,18.53
2018-08-16T11:46:56.570Z,18.30
2018-08-16T11:49:32.810Z,14.57
2018-08-16T11:52:08.195Z,18.07
2018-08-16T11:54:45.513Z,19.17
2018-08-16T11:57:22.518Z,19.50
2018-08-16T11:59:58.491Z,17.27
2018-08-16T12:02:34.391Z,18.47
2018-08-16T12:05:10.346Z,23.00
2018-08-16T12:07:45.684Z,17.03
2018-08-16T12:10:21.402Z,17.23
2018-08-16T12:12:57.192Z,18.07
2018-08-16T12:15:34.542Z,17.10
2018-08-16T12:18:10.367Z,17.77
2018-08-16T12:20:47.666Z,16.87
2018-08-16T12:23:23.770Z,17.67
2018-08-16T12:25:58.559Z,16.77
2018-08-16T12:28:33.912Z,18.87
2018-08-16T12:31:09.990Z,13.27
2018-08-16T12:33:44.643Z,13.07
2018-08-16T12:36:19.508Z,18.17
2018-08-16T12:38:57.414Z,18.83
2018-08-16T12:41:31.851Z,15.00
2018-08-16T12:44:08.159Z,16.67
2018-08-16T12:46:44.535Z,14.63
2018-08-16T12:49:20.462Z,14.37
2018-08-16T12:51:55.537Z,15.53
2018-08-16T12:54:30.611Z,16.20
2018-08-16T12:57:07.300Z,16.10
2018-08-16T12:59:43.194Z,14.10
2018-08-16T13:02:18.199Z,17.23
2018-08-16T13:04:54.323Z,14.93
2018-08-16T13:07:30.779Z,17.63
2018-08-16T13:10:07.430Z,18.03
2018-08-16T13:12:42.602Z,20.03
2018-08-16T13:15:17.444Z,19.10
2018-08-16T13:17:54.810Z,15.57
2018-08-16T13:20:31.202Z,16.50
2018-08-16T13:23:07.135Z,19.93
2018-08-16T13:25:42.570Z,19.47
2018-08-16T13:28:17.778Z,17.87
2018-08-16T13:30:53.819Z,18.97
2018-08-16T13:33:29.246Z,19.70
2018-08-16T13:36:05.223Z,18.97
2018-08-16T13:38:40.292Z,16.00
2018-08-16T13:41:16.110Z,13.47
2018-08-16T13:43:51.491Z,16.13
2018-08-16T13:46:26.341Z,18.30
2018-08-16T13:49:01.448Z,14.13
2018-08-16T13:51:37.378Z,15.70
2018-08-16T13:54:12.146Z,12.20
2018-08-16T13:56:48.542Z,14.10
2018-08-16T13:59:24.278Z,14.83
2018-08-16T14:01:59.670Z,12.57
2018-08-16T14:04:35.909Z,13.07
2018-08-16T14:07:10.777Z,12.60
2018-08-16T14:09:45.637Z,13.53
2018-08-16T14:12:20.926Z,12.67
2018-08-16T14:14:56.383Z,13.97
2018-08-16T14:17:32.842Z,13.63
2018-08-16T14:20:08.459Z,17.27
2018-08-16T14:22:44.509Z,14.20
2018-08-16T14:25:19.405Z,13.00
2018-08-16T14:27:56.463Z,13.60
2018-08-16T14:30:33.559Z,12.93
2018-08-16T14:33:08.995Z,10.27
2018-08-16T14:35:45.746Z,12.30
2018-08-16T14:38:21.655Z,12.27
2018-08-16T14:40:56.579Z,14.33
2018-08-16T14:43:36.023Z,11.50
2018-08-16T14:46:10.787Z,13.50
2018-08-16T14:48:46.632Z,11.53
2018-08-16T14:51:22.473Z,12.00
2018-08-16T14:53:56.998Z,10.50
2018-08-16T14:56:32.169Z,12.37
2018-08-16T14:59:07.377Z,12.40
2018-08-16T15:01:42.506Z,12.10
2018-08-16T15:04:20.935Z,12.00
2018-08-16T15:06:58.452Z,12.60
2018-08-16T15:09:34.068Z,14.90
2018-08-16T15:12:09.073Z,11.10
2018-08-16T15:14:45.355Z,11.50
2018-08-16T15:17:20.823Z,14.97
2018-08-16T15:19:55.891Z,11.57
2018-08-16T15:22:31.191Z,12.10
2018-08-16T15:25:07.667Z,13.23
2018-08-16T15:27:42.702Z,13.33
2018-08-16T15:30:20.347Z,13.07
2018-08-16T15:32:57.465Z,14.70
2018-08-16T15:35:33.532Z,13.10
2018-08-16T15:38:08.590Z,12.63
2018-08-16T15:40:45.307Z,15.07
2018-08-16T15:43:22.847Z,15.53
2018-08-16T15:45:58.703Z,11.30
2018-08-16T15:48:33.691Z,17.90
2018-08-16T15:51:10.178Z,13.53
2018-08-16T15:53:45.495Z,14.70
2018-08-16T15:56:22.966Z,12.10
2018-08-16T15:58:58.597Z,13.50
2018-08-16T16:01:34.724Z,12.93
2018-08-16T16:04:10.271Z,12.80
2018-08-16T16:06:45.862Z,13.80
2018-08-16T16:09:22.192Z,13.10
2018-08-16T16:11:57.123Z,11.87
2018-08-16T16:14:32.911Z,12.33
2018-08-16T16:17:09.349Z,13.97
2018-08-16T16:19:45.735Z,11.13
2018-08-16T16:22:21.370Z,11.07
2018-08-16T16:24:56.804Z,10.90
2018-08-16T16:27:32.471Z,11.43
2018-08-16T16:30:10.311Z,13.90
2018-08-16T16:32:46.643Z,13.13
2018-08-16T16:35:22.470Z,15.03
2018-08-16T16:37:57.579Z,12.83
2018-08-16T16:40:33.242Z,15.13
2018-08-16T16:43:10.322Z,11.10
2018-08-16T16:45:47.035Z,13.43
2018-08-16T16:48:24.183Z,13.23
2018-08-16T16:51:00.675Z,11.20
2018-08-16T16:53:36.438Z,13.13
2018-08-16T16:56:11.690Z,11.73
2018-08-16T16:58:48.835Z,10.90
2018-08-16T17:01:24.545Z,12.13
2018-08-16T17:04:00.349Z,11.03
2018-08-16T17:06:36.390Z,10.87
2018-08-16T17:09:12.690Z,12.33
2018-08-16T17:11:48.007Z,11.33
2018-08-16T17:14:23.857Z,12.30
2018-08-16T17:17:03.152Z,13.43
2018-08-16T17:19:39.539Z,12.90
2018-08-16T17:22:15.615Z,11.63
2018-08-16T17:24:50.419Z,12.50
2018-08-16T17:27:26.748Z,12.23
2018-08-16T17:30:02.298Z,13.13
2018-08-16T17:32:38.454Z,13.80
2018-08-16T17:35:14.198Z,13.37
2018-08-16T17:37:50.055Z,12.00
2018-08-16T17:40:25.518Z,11.23
2018-08-16T17:43:01.751Z,12.50
2018-08-16T17:45:37.178Z,15.93
2018-08-16T17:48:13.746Z,13.17
2018-08-16T17:50:49.448Z,15.70
2018-08-16T17:53:27.358Z,13.40
2018-08-16T17:56:03.287Z,13.17
2018-08-16T17:58:39.015Z,23.80
2018-08-16T18:01:16.075Z,14.70
2018-08-16T18:03:51.458Z,11.47
2018-08-16T18:06:26.798Z,15.73
2018-08-16T18:09:02.706Z,14.63
2018-08-16T18:11:38.586Z,13.13
2018-08-16T18:14:15.289Z,12.27
2018-08-16T18:16:51.366Z,16.20
2018-08-16T18:19:27.757Z,12.17
2018-08-16T18:22:02.286Z,12.63
2018-08-16T18:24:39.712Z,12.87
2018-08-16T18:27:16.494Z,15.57
2018-08-16T18:29:54.000Z,13.73
2018-08-16T18:32:28.940Z,14.80
2018-08-16T18:35:04.454Z,15.17
2018-08-16T18:37:40.662Z,15.97
2018-08-16T18:40:16.410Z,14.97
2018-08-16T18:42:52.415Z,16.77
2018-08-16T18:45:28.674Z,14.40
2018-08-16T18:48:05.380Z,19.20
2018-08-16T18:50:41.711Z,12.60
2018-08-16T18:53:17.161Z,14.43
2018-08-16T18:55:54.248Z,13.37
2018-08-16T18:58:30.500Z,16.57
2018-08-16T19:01:05.471Z,13.30
2018-08-16T19:03:42.250Z,15.10
2018-08-16T19:06:19.526Z,17.33
2018-08-16T19:08:55.091Z,16.23
2018-08-16T19:11:30.102Z,16.60
2018-08-16T19:14:05.598Z,18.53
2018-08-16T19:16:41.614Z,16.90
2018-08-16T19:19:17.307Z,18.27
2018-08-16T19:21:53.695Z,13.63
2018-08-16T19:24:29.867Z,16.20
2018-08-16T19:27:05.402Z,17.00
2018-08-16T19:29:44.059Z,18.63
2018-08-16T19:32:19.520Z,13.57
2018-08-16T19:34:55.147Z,15.13
2018-08-16T19:37:30.503Z,15.33
2018-08-16T19:40:07.563Z,18.83
2018-08-16T19:42:44.211Z,16.00
2018-08-16T19:45:19.541Z,16.57
2018-08-16T19:47:55.961Z,16.37
2018-08-16T19:50:31.545Z,17.97
2018-08-16T19:53:06.528Z,17.97
2018-08-16T19:55:41.322Z,15.97
2018-08-16T19:58:17.538Z,15.53
2018-08-16T20:00:52.808Z,17.07
2018-08-16T20:03:27.918Z,18.37
2018-08-16T20:06:03.493Z,15.97
2018-08-16T20:08:38.259Z,17.50
2018-08-16T20:11:14.250Z,17.57
2018-08-16T20:13:49.466Z,19.27
2018-08-16T20:16:24.071Z,20.00
2018-08-16T20:18:59.982Z,18.53
2018-08-16T20:21:35.991Z,17.97
2018-08-16T20:24:12.295Z,17.57
2018-08-16T20:26:47.085Z,17.70
2018-08-16T20:29:21.842Z,19.77
2018-08-16T20:31:57.714Z,20.70
2018-08-16T20:34:32.654Z,19.30
2018-08-16T20:37:09.246Z,21.23
2018-08-16T20:39:45.482Z,20.93
2018-08-16T20:42:21.485Z,18.03
2018-08-16T20:44:59.092Z,18.47
2018-08-16T20:47:33.990Z,18.80
2018-08-16T20:50:10.760Z,19.77
2018-08-16T20:52:46.311Z,21.70
2018-08-16T20:55:21.610Z,18.63
2018-08-16T20:57:57.235Z,20.60
2018-08-16T21:00:32.279Z,22.60
2018-08-16T21:03:07.590Z,22.47
2018-08-16T21:05:43.492Z,20.87
2018-08-16T21:08:20.591Z,21.77
2018-08-16T21:10:56.473Z,22.27
2018-08-16T21:13:31.737Z,21.27
2018-08-16T21:16:06.996Z,20.67
2018-08-16T21:18:42.346Z,18.57
2018-08-16T21:21:18.454Z,22.40
2018-08-16T21:23:54.671Z,21.73
2018-08-16T21:26:29.980Z,21.50
2018-08-16T21:29:06.968Z,24.97
2018-08-16T21:31:43.524Z,22.80
2018-08-16T21:34:18.294Z,23.80
2018-08-16T21:36:55.330Z,23.07
2018-08-16T21:39:32.377Z,23.03
2018-08-16T21:42:08.354Z,22.20
2018-08-16T21:44:44.262Z,20.53
2018-08-16T21:47:19.235Z,18.63
2018-08-16T21:49:55.102Z,23.03
2018-08-16T21:52:31.276Z,19.57
2018-08-16T21:55:07.082Z,25.43
2018-08-16T21:57:42.324Z,19.37
2018-08-16T22:00:29.441Z,24.23
2018-08-16T22:03:06.310Z,21.50
2018-08-16T22:05:58.394Z,20.67
2018-08-16T22:08:41.930Z,24.23
2018-08-16T22:11:17.346Z,23.67
2018-08-16T22:13:53.710Z,21.70
2018-08-16T22:16:30.085Z,19.87
2018-08-16T22:19:06.202Z,21.20
2018-08-16T22:21:42.830Z,21.57
2018-08-16T22:24:18.260Z,19.17
2018-08-16T22:26:53.938Z,23.17
2018-08-16T22:29:29.119Z,22.40
2018-08-16T22:32:06.100Z,21.40
2018-08-16T22:34:42.910Z,18.13
2018-08-16T22:37:19.343Z,19.40
2018-08-16T22:39:56.383Z,21.80
2018-08-16T22:42:33.358Z,20.10
2018-08-16T22:45:10.345Z,20.20
2018-08-16T22:47:46.730Z,20.10
2018-08-16T22:50:22.716Z,20.30
2018-08-16T22:52:58.956Z,21.53
2018-08-16T22:55:35.941Z,20.03
2018-08-16T22:58:10.759Z,22.33
2018-08-16T23:00:46.558Z,21.03
2018-08-16T23:03:22.506Z,19.30
2018-08-16T23:05:58.618Z,21.70
2018-08-16T23:08:34.395Z,20.03
2018-08-16T23:11:10.802Z,20.97
2018-08-16T23:13:46.409Z,19.80
2018-08-16T23:16:21.835Z,20.00
2018-08-16T23:18:58.469Z,19.30
2018-08-16T23:21:34.406Z,17.30
2018-08-16T23:24:11.538Z,20.17
2018-08-16T23:26:47.230Z,20.90
2018-08-16T23:29:24.955Z,21.40
2018-08-16T23:32:02.018Z,19.40
2018-08-16T23:34:39.095Z,19.90
2018-08-16T23:37:14.879Z,18.30
2018-08-16T23:39:50.483Z,20.90
2018-08-16T23:42:25.515Z,19.03
2018-08-16T23:45:01.130Z,21.60
2018-08-16T23:47:37.006Z,18.60
2018-08-16T23:50:12.412Z,21.80
2018-08-16T23:52:48.702Z,18.80
2018-08-16T23:55:24.262Z,19.53
2018-08-16T23:57:59.155Z,19.43
